sensor_id;sensor_type;location;lat;lon;timestamp;temperature;humidity
13472;DHT22;6808;49.444;11.034;2023-09-30T00:00:01;18.00;99.90
13472;DHT22;6808;49.444;11.034;2023-09-30T00:02:27;17.40;99.90
13472;DHT22;6808;49.444;11.034;2023-09-30T00:04:53;17.40;99.90
13472;DHT22;6808;49.444;11.034;2023-09-30T00:07:19;17.40;99.90
13472;DHT22;6808;49.444;11.034;2023-09-30T00:09:44;17.30;99.90
13472;DHT22;6808;49.444;11.034;2023-09-30T00:12:10;17.30;99.90
13472;DHT22;6808;49.444;11.034;2023-09-30T00:14:35;17.80;99.90
13472;DHT22;6808;49.444;11.034;2023-09-30T00:17:03;17.60;99.90
13472;DHT22;6808;49.444;11.034;2023-09-30T00:19:28;17.30;99.90
13472;DHT22;6808;49.444;11.034;2023-09-30T00:21:54;17.30;99.90
13472;DHT22;6808;49.444;11.034;2023-09-30T00:24:19;17.30;99.90
13472;DHT22;6808;49.444;11.034;2023-09-30T00:26:45;17.20;99.90
13472;DHT22;6808;49.444;11.034;2023-09-30T00:29:11;17.20;99.90
13472;DHT22;6808;49.444;11.034;2023-09-30T00:31:37;17.60;99.90
13472;DHT22;6808;49.444;11.034;2023-09-30T00:34:02;17.60;99.90
13472;DHT22;6808;49.444;11.034;2023-09-30T00:36:28;17.20;99.90
13472;DHT22;6808;49.444;11.034;2023-09-30T00:38:54;17.10;99.90
13472;DHT22;6808;49.444;11.034;2023-09-30T00:41:19;17.10;99.90
13472;DHT22;6808;49.444;11.034;2023-09-30T00:43:48;17.10;99.90
13472;DHT22;6808;49.444;11.034;2023-09-30T00:46:26;17.00;99.90
13472;DHT22;6808;49.444;11.034;2023-09-30T00:48:55;17.00;99.90
13472;DHT22;6808;49.444;11.034;2023-09-30T00:51:21;17.00;99.90
13472;DHT22;6808;49.444;11.034;2023-09-30T00:53:48;17.00;99.90
13472;DHT22;6808;49.444;11.034;2023-09-30T00:56:14;17.00;99.90
13472;DHT22;6808;49.444;11.034;2023-09-30T00:58:41;17.60;99.90
13472;DHT22;6808;49.444;11.034;2023-09-30T01:01:07;17.00;99.90
13472;DHT22;6808;49.444;11.034;2023-09-30T01:03:33;17.00;99.90
13472;DHT22;6808;49.444;11.034;2023-09-30T01:05:59;17.20;99.90
13472;DHT22;6808;49.444;11.034;2023-09-30T01:08:26;17.00;99.90
13472;DHT22;6808;49.444;11.034;2023-09-30T01:10:53;17.10;99.90
13472;DHT22;6808;49.444;11.034;2023-09-30T01:13:18;17.30;99.90
13472;DHT22;6808;49.444;11.034;2023-09-30T01:15:44;17.10;99.90
13472;DHT22;6808;49.444;11.034;2023-09-30T01:18:10;17.10;99.90
13472;DHT22;6808;49.444;11.034;2023-09-30T01:20:36;17.10;99.90
13472;DHT22;6808;49.444;11.034;2023-09-30T01:23:02;17.10;99.90
13472;DHT22;6808;49.444;11.034;2023-09-30T01:25:29;17.10;99.90
13472;DHT22;6808;49.444;11.034;2023-09-30T01:27:54;17.10;99.90
13472;DHT22;6808;49.444;11.034;2023-09-30T01:30:20;17.10;99.90
13472;DHT22;6808;49.444;11.034;2023-09-30T01:32:47;17.20;99.90
13472;DHT22;6808;49.444;11.034;2023-09-30T01:35:13;17.60;99.90
13472;DHT22;6808;49.444;11.034;2023-09-30T01:37:39;17.20;99.90
13472;DHT22;6808;49.444;11.034;2023-09-30T01:40:05;17.20;99.90
13472;DHT22;6808;49.444;11.034;2023-09-30T01:42:36;17.20;99.90
13472;DHT22;6808;49.444;11.034;2023-09-30T01:45:02;17.20;99.90
13472;DHT22;6808;49.444;11.034;2023-09-30T01:47:28;17.20;99.90
13472;DHT22;6808;49.444;11.034;2023-09-30T01:49:53;17.40;99.90
13472;DHT22;6808;49.444;11.034;2023-09-30T01:52:19;17.50;99.90
13472;DHT22;6808;49.444;11.034;2023-09-30T01:54:44;17.30;99.90
13472;DHT22;6808;49.444;11.034;2023-09-30T01:57:10;17.30;99.90
13472;DHT22;6808;49.444;11.034;2023-09-30T01:59:35;17.30;99.90
13472;DHT22;6808;49.444;11.034;2023-09-30T02:02:01;17.30;99.90
13472;DHT22;6808;49.444;11.034;2023-09-30T02:04:28;17.30;99.90
13472;DHT22;6808;49.444;11.034;2023-09-30T02:06:53;17.30;99.90
13472;DHT22;6808;49.444;11.034;2023-09-30T02:09:19;17.50;99.90
13472;DHT22;6808;49.444;11.034;2023-09-30T02:11:44;17.50;99.90
13472;DHT22;6808;49.444;11.034;2023-09-30T02:14:10;17.90;99.90
13472;DHT22;6808;49.444;11.034;2023-09-30T02:16:38;17.30;99.90
13472;DHT22;6808;49.444;11.034;2023-09-30T02:19:04;17.30;99.90
13472;DHT22;6808;49.444;11.034;2023-09-30T02:21:29;17.90;99.90
13472;DHT22;6808;49.444;11.034;2023-09-30T02:23:55;17.30;99.90
13472;DHT22;6808;49.444;11.034;2023-09-30T02:26:21;17.50;99.90
13472;DHT22;6808;49.444;11.034;2023-09-30T02:28:48;17.80;99.90
13472;DHT22;6808;49.444;11.034;2023-09-30T02:31:13;17.40;99.90
13472;DHT22;6808;49.444;11.034;2023-09-30T02:33:39;17.40;99.90
13472;DHT22;6808;49.444;11.034;2023-09-30T02:36:08;17.30;99.90
13472;DHT22;6808;49.444;11.034;2023-09-30T02:38:34;17.90;99.90
13472;DHT22;6808;49.444;11.034;2023-09-30T02:41:02;17.30;99.90
13472;DHT22;6808;49.444;11.034;2023-09-30T02:43:28;17.30;99.90
13472;DHT22;6808;49.444;11.034;2023-09-30T02:45:53;17.20;99.90
13472;DHT22;6808;49.444;11.034;2023-09-30T02:48:19;17.20;99.90
13472;DHT22;6808;49.444;11.034;2023-09-30T02:50:44;17.10;99.90
13472;DHT22;6808;49.444;11.034;2023-09-30T02:53:10;17.10;99.90
13472;DHT22;6808;49.444;11.034;2023-09-30T02:55:37;17.10;99.90
13472;DHT22;6808;49.444;11.034;2023-09-30T02:58:03;17.10;99.90
13472;DHT22;6808;49.444;11.034;2023-09-30T03:00:28;17.00;99.90
13472;DHT22;6808;49.444;11.034;2023-09-30T03:02:59;17.00;99.90
13472;DHT22;6808;49.444;11.034;2023-09-30T03:05:25;17.10;99.90
13472;DHT22;6808;49.444;11.034;2023-09-30T03:07:52;17.00;99.90
13472;DHT22;6808;49.444;11.034;2023-09-30T03:10:18;17.00;99.90
13472;DHT22;6808;49.444;11.034;2023-09-30T03:12:53;17.00;99.90
13472;DHT22;6808;49.444;11.034;2023-09-30T03:15:19;17.00;99.90
13472;DHT22;6808;49.444;11.034;2023-09-30T03:17:44;17.00;99.90
13472;DHT22;6808;49.444;11.034;2023-09-30T03:20:10;17.10;99.90
13472;DHT22;6808;49.444;11.034;2023-09-30T03:22:41;17.00;99.90
13472;DHT22;6808;49.444;11.034;2023-09-30T03:25:08;17.40;99.90
13472;DHT22;6808;49.444;11.034;2023-09-30T03:27:34;16.80;99.90
13472;DHT22;6808;49.444;11.034;2023-09-30T03:30:01;17.20;99.90
13472;DHT22;6808;49.444;11.034;2023-09-30T03:32:26;16.80;99.90
13472;DHT22;6808;49.444;11.034;2023-09-30T03:34:53;17.20;99.90
13472;DHT22;6808;49.444;11.034;2023-09-30T03:37:18;16.60;99.90
13472;DHT22;6808;49.444;11.034;2023-09-30T03:39:44;16.50;99.90
13472;DHT22;6808;49.444;11.034;2023-09-30T03:42:14;16.40;99.90
13472;DHT22;6808;49.444;11.034;2023-09-30T03:44:40;16.40;99.90
13472;DHT22;6808;49.444;11.034;2023-09-30T03:47:05;16.30;99.90
13472;DHT22;6808;49.444;11.034;2023-09-30T03:49:33;16.20;99.90
13472;DHT22;6808;49.444;11.034;2023-09-30T03:51:58;16.20;99.90
13472;DHT22;6808;49.444;11.034;2023-09-30T03:54:24;16.80;99.90
13472;DHT22;6808;49.444;11.034;2023-09-30T03:56:49;16.10;99.90
13472;DHT22;6808;49.444;11.034;2023-09-30T03:59:15;16.30;99.90
13472;DHT22;6808;49.444;11.034;2023-09-30T04:01:41;16.00;99.90
13472;DHT22;6808;49.444;11.034;2023-09-30T04:04:08;16.00;99.90
13472;DHT22;6808;49.444;11.034;2023-09-30T04:06:36;16.00;99.90
13472;DHT22;6808;49.444;11.034;2023-09-30T04:09:05;16.00;99.90
13472;DHT22;6808;49.444;11.034;2023-09-30T04:11:36;15.80;99.90
13472;DHT22;6808;49.444;11.034;2023-09-30T04:14:03;15.80;99.90
13472;DHT22;6808;49.444;11.034;2023-09-30T04:16:28;15.80;99.90
13472;DHT22;6808;49.444;11.034;2023-09-30T04:18:55;15.80;99.90
13472;DHT22;6808;49.444;11.034;2023-09-30T04:21:21;15.80;99.90
13472;DHT22;6808;49.444;11.034;2023-09-30T04:23:46;15.80;99.90
13472;DHT22;6808;49.444;11.034;2023-09-30T04:26:12;16.30;99.90
13472;DHT22;6808;49.444;11.034;2023-09-30T04:28:38;15.90;99.90
13472;DHT22;6808;49.444;11.034;2023-09-30T04:31:03;15.80;99.90
13472;DHT22;6808;49.444;11.034;2023-09-30T04:33:30;15.80;99.90
13472;DHT22;6808;49.444;11.034;2023-09-30T04:35:55;15.70;99.90
13472;DHT22;6808;49.444;11.034;2023-09-30T04:38:21;15.80;99.90
13472;DHT22;6808;49.444;11.034;2023-09-30T04:40:46;15.80;99.90
13472;DHT22;6808;49.444;11.034;2023-09-30T04:43:17;15.80;99.90
13472;DHT22;6808;49.444;11.034;2023-09-30T04:45:42;15.80;99.90
13472;DHT22;6808;49.444;11.034;2023-09-30T04:48:08;15.80;99.90
13472;DHT22;6808;49.444;11.034;2023-09-30T04:50:34;15.70;99.90
13472;DHT22;6808;49.444;11.034;2023-09-30T04:52:59;15.60;99.90
13472;DHT22;6808;49.444;11.034;2023-09-30T04:55:25;15.70;99.90
13472;DHT22;6808;49.444;11.034;2023-09-30T04:57:51;15.70;99.90
13472;DHT22;6808;49.444;11.034;2023-09-30T05:00:19;15.70;99.90
13472;DHT22;6808;49.444;11.034;2023-09-30T05:02:50;15.60;99.90
13472;DHT22;6808;49.444;11.034;2023-09-30T05:05:17;15.60;99.90
13472;DHT22;6808;49.444;11.034;2023-09-30T05:07:44;15.60;99.90
13472;DHT22;6808;49.444;11.034;2023-09-30T05:10:10;15.60;99.90
13472;DHT22;6808;49.444;11.034;2023-09-30T05:12:38;15.60;99.90
13472;DHT22;6808;49.444;11.034;2023-09-30T05:15:05;15.50;99.90
13472;DHT22;6808;49.444;11.034;2023-09-30T05:17:31;15.50;99.90
13472;DHT22;6808;49.444;11.034;2023-09-30T05:19:57;15.80;99.90
13472;DHT22;6808;49.444;11.034;2023-09-30T05:22:23;15.50;99.90
13472;DHT22;6808;49.444;11.034;2023-09-30T05:24:52;16.10;99.90
13472;DHT22;6808;49.444;11.034;2023-09-30T05:27:19;15.50;99.90
13472;DHT22;6808;49.444;11.034;2023-09-30T05:29:45;15.50;99.90
13472;DHT22;6808;49.444;11.034;2023-09-30T05:32:11;15.50;99.90
13472;DHT22;6808;49.444;11.034;2023-09-30T05:34:36;15.90;99.90
13472;DHT22;6808;49.444;11.034;2023-09-30T05:37:04;15.50;99.90
13472;DHT22;6808;49.444;11.034;2023-09-30T05:39:30;15.50;99.90
13472;DHT22;6808;49.444;11.034;2023-09-30T05:41:57;15.50;99.90
13472;DHT22;6808;49.444;11.034;2023-09-30T05:44:22;14.70;99.90
13472;DHT22;6808;49.444;11.034;2023-09-30T05:46:48;15.50;99.90
13472;DHT22;6808;49.444;11.034;2023-09-30T05:49:13;15.60;99.90
13472;DHT22;6808;49.444;11.034;2023-09-30T05:51:40;15.60;99.90
13472;DHT22;6808;49.444;11.034;2023-09-30T05:54:07;15.50;99.90
13472;DHT22;6808;49.444;11.034;2023-09-30T05:56:38;15.50;99.90
13472;DHT22;6808;49.444;11.034;2023-09-30T05:59:04;15.50;99.90
13472;DHT22;6808;49.444;11.034;2023-09-30T06:01:31;15.50;99.90
13472;DHT22;6808;49.444;11.034;2023-09-30T06:03:58;15.60;99.90
13472;DHT22;6808;49.444;11.034;2023-09-30T06:06:23;15.60;99.90
13472;DHT22;6808;49.444;11.034;2023-09-30T06:08:51;16.20;99.90
13472;DHT22;6808;49.444;11.034;2023-09-30T06:11:17;15.60;99.90
13472;DHT22;6808;49.444;11.034;2023-09-30T06:13:47;15.70;99.90
13472;DHT22;6808;49.444;11.034;2023-09-30T06:16:13;15.60;99.90
13472;DHT22;6808;49.444;11.034;2023-09-30T06:18:38;15.80;99.90
13472;DHT22;6808;49.444;11.034;2023-09-30T06:21:04;16.20;99.90
13472;DHT22;6808;49.444;11.034;2023-09-30T06:23:30;15.70;99.90
13472;DHT22;6808;49.444;11.034;2023-09-30T06:25:57;15.70;99.90
13472;DHT22;6808;49.444;11.034;2023-09-30T06:28:24;15.70;99.90
13472;DHT22;6808;49.444;11.034;2023-09-30T06:30:54;15.70;99.90
13472;DHT22;6808;49.444;11.034;2023-09-30T06:33:21;15.90;99.90
13472;DHT22;6808;49.444;11.034;2023-09-30T06:35:46;15.70;99.90
13472;DHT22;6808;49.444;11.034;2023-09-30T06:38:21;15.80;99.90
13472;DHT22;6808;49.444;11.034;2023-09-30T06:40:47;15.80;99.90
13472;DHT22;6808;49.444;11.034;2023-09-30T06:43:14;15.80;99.90
13472;DHT22;6808;49.444;11.034;2023-09-30T06:45:43;15.80;99.90
13472;DHT22;6808;49.444;11.034;2023-09-30T06:48:11;16.30;99.90
13472;DHT22;6808;49.444;11.034;2023-09-30T06:50:50;15.80;99.90
13472;DHT22;6808;49.444;11.034;2023-09-30T06:53:19;15.80;99.90
13472;DHT22;6808;49.444;11.034;2023-09-30T06:55:47;15.80;99.90
13472;DHT22;6808;49.444;11.034;2023-09-30T06:58:12;15.80;99.90
13472;DHT22;6808;49.444;11.034;2023-09-30T07:00:40;16.10;99.90
13472;DHT22;6808;49.444;11.034;2023-09-30T07:03:07;15.80;99.90
13472;DHT22;6808;49.444;11.034;2023-09-30T07:05:35;15.80;99.90
13472;DHT22;6808;49.444;11.034;2023-09-30T07:08:01;15.80;99.90
13472;DHT22;6808;49.444;11.034;2023-09-30T07:10:28;15.80;99.90
13472;DHT22;6808;49.444;11.034;2023-09-30T07:12:55;15.70;99.90
13472;DHT22;6808;49.444;11.034;2023-09-30T07:15:20;15.70;99.90
13472;DHT22;6808;49.444;11.034;2023-09-30T07:17:46;15.70;99.90
13472;DHT22;6808;49.444;11.034;2023-09-30T07:20:13;15.70;99.90
13472;DHT22;6808;49.444;11.034;2023-09-30T07:22:39;15.20;99.90
13472;DHT22;6808;49.444;11.034;2023-09-30T07:25:05;15.70;99.90
13472;DHT22;6808;49.444;11.034;2023-09-30T07:27:31;15.70;99.90
13472;DHT22;6808;49.444;11.034;2023-09-30T07:29:57;15.70;99.90
13472;DHT22;6808;49.444;11.034;2023-09-30T07:32:22;15.80;99.90
13472;DHT22;6808;49.444;11.034;2023-09-30T07:34:49;15.70;99.90
13472;DHT22;6808;49.444;11.034;2023-09-30T07:37:15;15.70;99.90
13472;DHT22;6808;49.444;11.034;2023-09-30T07:39:42;15.90;99.90
13472;DHT22;6808;49.444;11.034;2023-09-30T07:42:11;15.90;99.90
13472;DHT22;6808;49.444;11.034;2023-09-30T07:44:36;16.00;99.90
13472;DHT22;6808;49.444;11.034;2023-09-30T07:47:04;16.00;99.90
13472;DHT22;6808;49.444;11.034;2023-09-30T07:49:34;16.00;99.90
13472;DHT22;6808;49.444;11.034;2023-09-30T07:52:00;16.40;99.90
13472;DHT22;6808;49.444;11.034;2023-09-30T07:54:26;16.00;99.90
13472;DHT22;6808;49.444;11.034;2023-09-30T07:56:52;16.00;99.90
13472;DHT22;6808;49.444;11.034;2023-09-30T07:59:17;16.00;99.90
13472;DHT22;6808;49.444;11.034;2023-09-30T08:01:43;16.00;99.90
13472;DHT22;6808;49.444;11.034;2023-09-30T08:04:09;16.00;99.90
13472;DHT22;6808;49.444;11.034;2023-09-30T08:06:34;16.00;99.90
13472;DHT22;6808;49.444;11.034;2023-09-30T08:09:00;16.00;99.90
13472;DHT22;6808;49.444;11.034;2023-09-30T08:11:25;16.10;99.90
13472;DHT22;6808;49.444;11.034;2023-09-30T08:13:56;16.20;99.90
13472;DHT22;6808;49.444;11.034;2023-09-30T08:16:21;16.20;99.90
13472;DHT22;6808;49.444;11.034;2023-09-30T08:18:47;16.30;99.90
13472;DHT22;6808;49.444;11.034;2023-09-30T08:21:12;16.30;99.90
13472;DHT22;6808;49.444;11.034;2023-09-30T08:23:39;16.40;99.90
13472;DHT22;6808;49.444;11.034;2023-09-30T08:26:05;16.50;99.90
13472;DHT22;6808;49.444;11.034;2023-09-30T08:28:31;16.40;99.90
13472;DHT22;6808;49.444;11.034;2023-09-30T08:31:02;16.50;99.90
13472;DHT22;6808;49.444;11.034;2023-09-30T08:33:28;16.40;99.90
13472;DHT22;6808;49.444;11.034;2023-09-30T08:35:56;16.60;99.90
13472;DHT22;6808;49.444;11.034;2023-09-30T08:38:23;16.90;99.90
13472;DHT22;6808;49.444;11.034;2023-09-30T08:40:52;16.60;99.90
13472;DHT22;6808;49.444;11.034;2023-09-30T08:43:21;17.10;99.90
13472;DHT22;6808;49.444;11.034;2023-09-30T08:45:50;16.60;99.90
13472;DHT22;6808;49.444;11.034;2023-09-30T08:48:20;17.10;99.90
13472;DHT22;6808;49.444;11.034;2023-09-30T08:50:45;16.70;99.90
13472;DHT22;6808;49.444;11.034;2023-09-30T08:53:12;16.70;99.90
13472;DHT22;6808;49.444;11.034;2023-09-30T08:55:41;16.80;99.90
13472;DHT22;6808;49.444;11.034;2023-09-30T08:58:09;16.80;99.90
13472;DHT22;6808;49.444;11.034;2023-09-30T09:00:35;16.80;99.90
13472;DHT22;6808;49.444;11.034;2023-09-30T09:03:00;16.90;99.90
13472;DHT22;6808;49.444;11.034;2023-09-30T09:05:26;16.90;99.90
13472;DHT22;6808;49.444;11.034;2023-09-30T09:07:51;17.00;99.90
13472;DHT22;6808;49.444;11.034;2023-09-30T09:10:17;17.00;99.90
13472;DHT22;6808;49.444;11.034;2023-09-30T09:12:57;17.10;99.90
13472;DHT22;6808;49.444;11.034;2023-09-30T09:15:27;17.10;99.90
13472;DHT22;6808;49.444;11.034;2023-09-30T09:17:56;17.10;99.90
13472;DHT22;6808;49.444;11.034;2023-09-30T09:20:24;17.20;99.90
13472;DHT22;6808;49.444;11.034;2023-09-30T09:22:55;17.20;99.90
13472;DHT22;6808;49.444;11.034;2023-09-30T09:25:22;17.30;99.90
13472;DHT22;6808;49.444;11.034;2023-09-30T09:27:49;17.40;99.90
13472;DHT22;6808;49.444;11.034;2023-09-30T09:30:24;17.60;99.90
13472;DHT22;6808;49.444;11.034;2023-09-30T09:33:01;17.50;99.90
13472;DHT22;6808;49.444;11.034;2023-09-30T09:35:27;17.50;99.90
13472;DHT22;6808;49.444;11.034;2023-09-30T09:37:59;17.60;99.90
13472;DHT22;6808;49.444;11.034;2023-09-30T09:40:29;17.90;99.90
13472;DHT22;6808;49.444;11.034;2023-09-30T09:42:56;17.70;99.90
13472;DHT22;6808;49.444;11.034;2023-09-30T09:45:23;17.80;99.90
13472;DHT22;6808;49.444;11.034;2023-09-30T09:47:49;17.80;99.90
13472;DHT22;6808;49.444;11.034;2023-09-30T09:50:17;17.80;99.90
13472;DHT22;6808;49.444;11.034;2023-09-30T09:52:43;17.80;99.90
13472;DHT22;6808;49.444;11.034;2023-09-30T09:55:15;18.00;99.90
13472;DHT22;6808;49.444;11.034;2023-09-30T09:57:41;18.10;99.90
13472;DHT22;6808;49.444;11.034;2023-09-30T10:00:21;18.10;99.90
13472;DHT22;6808;49.444;11.034;2023-09-30T10:02:48;18.20;99.90
13472;DHT22;6808;49.444;11.034;2023-09-30T10:05:15;18.40;99.90
13472;DHT22;6808;49.444;11.034;2023-09-30T10:10:22;18.10;99.90
13472;DHT22;6808;49.444;11.034;2023-09-30T10:12:49;18.30;99.90
13472;DHT22;6808;49.444;11.034;2023-09-30T10:18:20;18.40;99.90
13472;DHT22;6808;49.444;11.034;2023-09-30T10:20:45;18.40;99.90
13472;DHT22;6808;49.444;11.034;2023-09-30T10:23:29;18.40;99.90
13472;DHT22;6808;49.444;11.034;2023-09-30T10:28:40;18.30;99.90
13472;DHT22;6808;49.444;11.034;2023-09-30T10:31:13;18.50;99.90
13472;DHT22;6808;49.444;11.034;2023-09-30T10:36:36;18.30;99.90
13472;DHT22;6808;49.444;11.034;2023-09-30T10:39:04;18.30;99.90
13472;DHT22;6808;49.444;11.034;2023-09-30T10:49:46;18.30;99.90
13472;DHT22;6808;49.444;11.034;2023-09-30T10:52:21;18.40;99.90
13472;DHT22;6808;49.444;11.034;2023-09-30T10:54:49;18.50;99.90
13472;DHT22;6808;49.444;11.034;2023-09-30T10:57:26;18.60;99.90
13472;DHT22;6808;49.444;11.034;2023-09-30T11:00:10;18.40;99.90
13472;DHT22;6808;49.444;11.034;2023-09-30T11:02:50;18.50;99.90
13472;DHT22;6808;49.444;11.034;2023-09-30T11:05:17;18.60;99.90
13472;DHT22;6808;49.444;11.034;2023-09-30T11:07:44;18.70;99.90
13472;DHT22;6808;49.444;11.034;2023-09-30T11:10:16;18.70;99.90
13472;DHT22;6808;49.444;11.034;2023-09-30T11:12:54;19.00;99.90
13472;DHT22;6808;49.444;11.034;2023-09-30T11:15:19;19.20;99.90
13472;DHT22;6808;49.444;11.034;2023-09-30T11:17:45;18.90;99.90
13472;DHT22;6808;49.444;11.034;2023-09-30T11:20:11;18.90;99.90
13472;DHT22;6808;49.444;11.034;2023-09-30T11:22:36;18.80;99.90
13472;DHT22;6808;49.444;11.034;2023-09-30T11:25:02;18.90;99.90
13472;DHT22;6808;49.444;11.034;2023-09-30T11:27:28;18.90;99.90
13472;DHT22;6808;49.444;11.034;2023-09-30T11:29:56;18.90;99.50
13472;DHT22;6808;49.444;11.034;2023-09-30T11:32:24;19.10;99.90
13472;DHT22;6808;49.444;11.034;2023-09-30T11:34:52;19.10;99.90
13472;DHT22;6808;49.444;11.034;2023-09-30T11:37:18;19.10;99.90
13472;DHT22;6808;49.444;11.034;2023-09-30T11:39:44;19.10;99.90
13472;DHT22;6808;49.444;11.034;2023-09-30T11:42:17;19.20;99.90
13472;DHT22;6808;49.444;11.034;2023-09-30T11:44:46;19.10;99.00
13472;DHT22;6808;49.444;11.034;2023-09-30T11:47:13;19.10;99.80
13472;DHT22;6808;49.444;11.034;2023-09-30T11:49:42;19.20;98.90
13472;DHT22;6808;49.444;11.034;2023-09-30T11:52:11;19.20;99.90
13472;DHT22;6808;49.444;11.034;2023-09-30T11:54:40;19.20;99.90
13472;DHT22;6808;49.444;11.034;2023-09-30T11:57:11;19.40;98.20
13472;DHT22;6808;49.444;11.034;2023-09-30T11:59:38;19.30;97.10
13472;DHT22;6808;49.444;11.034;2023-09-30T12:02:04;19.40;97.80
13472;DHT22;6808;49.444;11.034;2023-09-30T12:04:31;19.40;99.60
13472;DHT22;6808;49.444;11.034;2023-09-30T12:06:57;19.60;99.90
13472;DHT22;6808;49.444;11.034;2023-09-30T12:09:23;19.80;99.90
13472;DHT22;6808;49.444;11.034;2023-09-30T12:11:52;19.70;99.90
13472;DHT22;6808;49.444;11.034;2023-09-30T12:14:19;19.90;99.90
13472;DHT22;6808;49.444;11.034;2023-09-30T12:16:46;19.80;98.20
13472;DHT22;6808;49.444;11.034;2023-09-30T12:19:16;20.00;98.70
13472;DHT22;6808;49.444;11.034;2023-09-30T12:21:42;19.80;97.90
13472;DHT22;6808;49.444;11.034;2023-09-30T12:24:09;19.80;99.00
13472;DHT22;6808;49.444;11.034;2023-09-30T12:26:35;19.90;98.10
13472;DHT22;6808;49.444;11.034;2023-09-30T12:29:01;20.00;99.90
13472;DHT22;6808;49.444;11.034;2023-09-30T12:31:28;20.00;97.70
13472;DHT22;6808;49.444;11.034;2023-09-30T12:33:54;20.00;98.00
13472;DHT22;6808;49.444;11.034;2023-09-30T12:36:21;20.00;99.90
13472;DHT22;6808;49.444;11.034;2023-09-30T12:38:47;20.10;97.50
13472;DHT22;6808;49.444;11.034;2023-09-30T12:41:13;20.20;99.50
13472;DHT22;6808;49.444;11.034;2023-09-30T12:43:39;20.40;98.90
13472;DHT22;6808;49.444;11.034;2023-09-30T12:46:10;20.40;97.30
13472;DHT22;6808;49.444;11.034;2023-09-30T12:48:35;20.50;97.20
13472;DHT22;6808;49.444;11.034;2023-09-30T12:51:03;20.40;96.80
13472;DHT22;6808;49.444;11.034;2023-09-30T12:53:32;20.50;97.60
13472;DHT22;6808;49.444;11.034;2023-09-30T12:55:57;20.60;98.00
13472;DHT22;6808;49.444;11.034;2023-09-30T12:58:25;20.70;98.70
13472;DHT22;6808;49.444;11.034;2023-09-30T13:00:56;20.80;98.50
13472;DHT22;6808;49.444;11.034;2023-09-30T13:03:22;20.70;97.60
13472;DHT22;6808;49.444;11.034;2023-09-30T13:05:48;20.80;96.20
13472;DHT22;6808;49.444;11.034;2023-09-30T13:08:13;20.80;96.60
13472;DHT22;6808;49.444;11.034;2023-09-30T13:10:39;20.80;94.30
13472;DHT22;6808;49.444;11.034;2023-09-30T13:13:04;20.80;96.10
13472;DHT22;6808;49.444;11.034;2023-09-30T13:15:30;21.00;97.80
13472;DHT22;6808;49.444;11.034;2023-09-30T13:17:56;20.90;96.80
13472;DHT22;6808;49.444;11.034;2023-09-30T13:20:21;20.90;95.30
13472;DHT22;6808;49.444;11.034;2023-09-30T13:22:47;21.00;94.30
13472;DHT22;6808;49.444;11.034;2023-09-30T13:25:13;21.20;97.50
13472;DHT22;6808;49.444;11.034;2023-09-30T13:27:39;21.10;96.80
13472;DHT22;6808;49.444;11.034;2023-09-30T13:30:07;21.10;96.30
13472;DHT22;6808;49.444;11.034;2023-09-30T13:32:33;21.30;96.30
13472;DHT22;6808;49.444;11.034;2023-09-30T13:35:05;21.30;97.30
13472;DHT22;6808;49.444;11.034;2023-09-30T13:37:31;21.30;95.90
13472;DHT22;6808;49.444;11.034;2023-09-30T13:39:59;21.40;94.80
13472;DHT22;6808;49.444;11.034;2023-09-30T13:42:26;21.40;95.30
13472;DHT22;6808;49.444;11.034;2023-09-30T13:44:51;21.40;94.30
13472;DHT22;6808;49.444;11.034;2023-09-30T13:47:17;21.30;95.10
13472;DHT22;6808;49.444;11.034;2023-09-30T13:49:42;21.30;93.90
13472;DHT22;6808;49.444;11.034;2023-09-30T13:52:08;21.30;95.00
13472;DHT22;6808;49.444;11.034;2023-09-30T13:54:33;21.30;94.70
13472;DHT22;6808;49.444;11.034;2023-09-30T13:56:59;21.20;93.00
13472;DHT22;6808;49.444;11.034;2023-09-30T13:59:24;21.20;96.60
13472;DHT22;6808;49.444;11.034;2023-09-30T14:01:50;21.20;94.30
13472;DHT22;6808;49.444;11.034;2023-09-30T14:04:15;21.20;93.80
13472;DHT22;6808;49.444;11.034;2023-09-30T14:06:42;21.10;92.90
13472;DHT22;6808;49.444;11.034;2023-09-30T14:09:08;21.10;93.90
13472;DHT22;6808;49.444;11.034;2023-09-30T14:11:40;21.00;94.80
13472;DHT22;6808;49.444;11.034;2023-09-30T14:14:06;21.00;95.80
13472;DHT22;6808;49.444;11.034;2023-09-30T14:16:35;20.90;94.10
13472;DHT22;6808;49.444;11.034;2023-09-30T14:19:01;20.80;93.50
13472;DHT22;6808;49.444;11.034;2023-09-30T14:21:26;20.80;94.30
13472;DHT22;6808;49.444;11.034;2023-09-30T14:23:53;20.80;93.80
13472;DHT22;6808;49.444;11.034;2023-09-30T14:26:19;20.70;93.80
13472;DHT22;6808;49.444;11.034;2023-09-30T14:28:44;20.70;92.70
13472;DHT22;6808;49.444;11.034;2023-09-30T14:31:10;20.60;92.70
13472;DHT22;6808;49.444;11.034;2023-09-30T14:33:36;20.40;94.40
13472;DHT22;6808;49.444;11.034;2023-09-30T14:36:03;20.30;94.80
13472;DHT22;6808;49.444;11.034;2023-09-30T14:38:31;20.10;94.00
13472;DHT22;6808;49.444;11.034;2023-09-30T14:40:56;20.10;95.00
13472;DHT22;6808;49.444;11.034;2023-09-30T14:43:22;20.00;94.60
13472;DHT22;6808;49.444;11.034;2023-09-30T14:45:48;20.00;95.00
13472;DHT22;6808;49.444;11.034;2023-09-30T14:48:13;20.00;94.40
13472;DHT22;6808;49.444;11.034;2023-09-30T14:50:48;20.10;94.50
13472;DHT22;6808;49.444;11.034;2023-09-30T14:53:14;20.50;95.70
13472;DHT22;6808;49.444;11.034;2023-09-30T14:55:41;20.00;95.30
13472;DHT22;6808;49.444;11.034;2023-09-30T14:58:06;20.30;94.60
13472;DHT22;6808;49.444;11.034;2023-09-30T15:00:32;20.10;95.00
13472;DHT22;6808;49.444;11.034;2023-09-30T15:02:57;19.80;95.10
13472;DHT22;6808;49.444;11.034;2023-09-30T15:05:23;19.80;95.40
13472;DHT22;6808;49.444;11.034;2023-09-30T15:07:49;19.60;94.70
13472;DHT22;6808;49.444;11.034;2023-09-30T15:10:16;19.60;95.10
13472;DHT22;6808;49.444;11.034;2023-09-30T15:12:41;19.60;95.50
13472;DHT22;6808;49.444;11.034;2023-09-30T15:15:07;19.50;96.00
13472;DHT22;6808;49.444;11.034;2023-09-30T15:17:34;19.50;96.10
13472;DHT22;6808;49.444;11.034;2023-09-30T15:20:00;19.50;95.20
13472;DHT22;6808;49.444;11.034;2023-09-30T15:22:26;19.40;96.40
13472;DHT22;6808;49.444;11.034;2023-09-30T15:24:51;19.30;96.60
13472;DHT22;6808;49.444;11.034;2023-09-30T15:27:17;19.20;96.70
13472;DHT22;6808;49.444;11.034;2023-09-30T15:29:44;19.20;97.10
13472;DHT22;6808;49.444;11.034;2023-09-30T15:32:09;19.20;97.10
13472;DHT22;6808;49.444;11.034;2023-09-30T15:34:38;19.20;97.50
13472;DHT22;6808;49.444;11.034;2023-09-30T15:37:06;19.00;97.70
13472;DHT22;6808;49.444;11.034;2023-09-30T15:39:38;19.00;97.90
13472;DHT22;6808;49.444;11.034;2023-09-30T15:42:04;18.90;97.80
13472;DHT22;6808;49.444;11.034;2023-09-30T15:44:29;18.90;97.70
13472;DHT22;6808;49.444;11.034;2023-09-30T15:46:55;18.80;98.10